sensor_id;sensor_type;location;lat;lon;timestamp;P1;durP1;ratioP1;P2;durP2;ratioP2
33094;SDS011;19459;53.044;8.910;2022-07-09T00:01:01;15.70;;;6.03;;
33094;SDS011;19459;53.044;8.910;2022-07-09T00:03:28;12.85;;;5.65;;
33094;SDS011;19459;53.044;8.910;2022-07-09T00:05:54;15.27;;;6.38;;
33094;SDS011;19459;53.044;8.910;2022-07-09T00:08:20;12.75;;;5.63;;
33094;SDS011;19459;53.044;8.910;2022-07-09T00:10:46;11.75;;;5.75;;
33094;SDS011;19459;53.044;8.910;2022-07-09T00:13:12;9.52;;;5.40;;
33094;SDS011;19459;53.044;8.910;2022-07-09T00:15:38;13.32;;;6.40;;
33094;SDS011;19459;53.044;8.910;2022-07-09T00:18:03;14.10;;;6.43;;
33094;SDS011;19459;53.044;8.910;2022-07-09T00:20:29;13.60;;;5.25;;
33094;SDS011;19459;53.044;8.910;2022-07-09T00:22:55;12.57;;;6.25;;
33094;SDS011;19459;53.044;8.910;2022-07-09T00:25:21;13.63;;;6.07;;
33094;SDS011;19459;53.044;8.910;2022-07-09T00:27:46;15.98;;;5.93;;
33094;SDS011;19459;53.044;8.910;2022-07-09T00:30:12;14.43;;;5.65;;
33094;SDS011;19459;53.044;8.910;2022-07-09T00:32:38;17.08;;;6.47;;
33094;SDS011;19459;53.044;8.910;2022-07-09T00:35:04;15.23;;;6.38;;
33094;SDS011;19459;53.044;8.910;2022-07-09T00:37:31;15.23;;;6.18;;
33094;SDS011;19459;53.044;8.910;2022-07-09T00:39:56;17.98;;;6.85;;
33094;SDS011;19459;53.044;8.910;2022-07-09T00:42:22;18.45;;;6.40;;
33094;SDS011;19459;53.044;8.910;2022-07-09T00:44:49;19.80;;;8.35;;
33094;SDS011;19459;53.044;8.910;2022-07-09T00:47:16;13.05;;;6.80;;
33094;SDS011;19459;53.044;8.910;2022-07-09T00:49:42;14.13;;;6.93;;
33094;SDS011;19459;53.044;8.910;2022-07-09T00:52:13;13.90;;;7.90;;
33094;SDS011;19459;53.044;8.910;2022-07-09T00:54:40;15.05;;;7.03;;
33094;SDS011;19459;53.044;8.910;2022-07-09T00:57:07;22.00;;;8.27;;
33094;SDS011;19459;53.044;8.910;2022-07-09T00:59:35;18.30;;;7.72;;
33094;SDS011;19459;53.044;8.910;2022-07-09T01:02:02;15.52;;;7.82;;
33094;SDS011;19459;53.044;8.910;2022-07-09T01:04:28;15.25;;;7.97;;
33094;SDS011;19459;53.044;8.910;2022-07-09T01:06:55;16.38;;;7.45;;
33094;SDS011;19459;53.044;8.910;2022-07-09T01:09:22;16.38;;;6.72;;
33094;SDS011;19459;53.044;8.910;2022-07-09T01:11:52;16.35;;;7.68;;
33094;SDS011;19459;53.044;8.910;2022-07-09T01:14:18;17.90;;;7.13;;
33094;SDS011;19459;53.044;8.910;2022-07-09T01:16:44;13.65;;;6.82;;
33094;SDS011;19459;53.044;8.910;2022-07-09T01:19:10;17.95;;;7.55;;
33094;SDS011;19459;53.044;8.910;2022-07-09T01:21:35;17.15;;;6.53;;
33094;SDS011;19459;53.044;8.910;2022-07-09T01:24:01;17.67;;;7.20;;
33094;SDS011;19459;53.044;8.910;2022-07-09T01:26:27;14.27;;;7.40;;
33094;SDS011;19459;53.044;8.910;2022-07-09T01:28:53;15.20;;;7.72;;
33094;SDS011;19459;53.044;8.910;2022-07-09T01:31:19;13.50;;;6.60;;
33094;SDS011;19459;53.044;8.910;2022-07-09T01:33:45;24.05;;;7.28;;
33094;SDS011;19459;53.044;8.910;2022-07-09T01:36:10;17.25;;;7.13;;
33094;SDS011;19459;53.044;8.910;2022-07-09T01:38:37;22.13;;;6.72;;
33094;SDS011;19459;53.044;8.910;2022-07-09T01:41:03;20.67;;;6.50;;
33094;SDS011;19459;53.044;8.910;2022-07-09T01:43:29;12.43;;;7.50;;
33094;SDS011;19459;53.044;8.910;2022-07-09T01:45:59;14.27;;;7.72;;
33094;SDS011;19459;53.044;8.910;2022-07-09T01:48:27;14.70;;;7.45;;
33094;SDS011;19459;53.044;8.910;2022-07-09T01:50:54;16.85;;;7.22;;
33094;SDS011;19459;53.044;8.910;2022-07-09T01:53:20;11.77;;;6.72;;
33094;SDS011;19459;53.044;8.910;2022-07-09T01:55:45;14.70;;;7.07;;
33094;SDS011;19459;53.044;8.910;2022-07-09T01:58:11;11.15;;;7.43;;
33094;SDS011;19459;53.044;8.910;2022-07-09T02:00:39;14.60;;;6.82;;
33094;SDS011;19459;53.044;8.910;2022-07-09T02:03:05;14.90;;;8.55;;
33094;SDS011;19459;53.044;8.910;2022-07-09T02:05:32;23.25;;;8.07;;
33094;SDS011;19459;53.044;8.910;2022-07-09T02:07:58;14.70;;;7.63;;
33094;SDS011;19459;53.044;8.910;2022-07-09T02:10:24;18.45;;;6.95;;
33094;SDS011;19459;53.044;8.910;2022-07-09T02:12:49;16.88;;;7.53;;
33094;SDS011;19459;53.044;8.910;2022-07-09T02:15:15;16.75;;;7.80;;
33094;SDS011;19459;53.044;8.910;2022-07-09T02:17:41;17.55;;;8.95;;
33094;SDS011;19459;53.044;8.910;2022-07-09T02:20:07;20.35;;;8.95;;
33094;SDS011;19459;53.044;8.910;2022-07-09T02:22:34;17.50;;;9.98;;
33094;SDS011;19459;53.044;8.910;2022-07-09T02:25:00;20.58;;;10.27;;
33094;SDS011;19459;53.044;8.910;2022-07-09T02:27:25;18.80;;;10.35;;
33094;SDS011;19459;53.044;8.910;2022-07-09T02:29:51;13.93;;;10.05;;
33094;SDS011;19459;53.044;8.910;2022-07-09T02:32:17;23.98;;;11.20;;
33094;SDS011;19459;53.044;8.910;2022-07-09T02:34:43;14.45;;;8.35;;
33094;SDS011;19459;53.044;8.910;2022-07-09T02:37:09;16.35;;;8.93;;
33094;SDS011;19459;53.044;8.910;2022-07-09T02:39:34;17.48;;;8.52;;
33094;SDS011;19459;53.044;8.910;2022-07-09T02:42:00;18.52;;;9.52;;
33094;SDS011;19459;53.044;8.910;2022-07-09T02:44:26;21.63;;;10.55;;
33094;SDS011;19459;53.044;8.910;2022-07-09T02:46:52;17.60;;;8.23;;
33094;SDS011;19459;53.044;8.910;2022-07-09T02:49:18;15.52;;;8.80;;
33094;SDS011;19459;53.044;8.910;2022-07-09T02:51:46;18.25;;;8.15;;
33094;SDS011;19459;53.044;8.910;2022-07-09T02:54:12;16.15;;;9.02;;
33094;SDS011;19459;53.044;8.910;2022-07-09T02:56:37;18.63;;;8.48;;
33094;SDS011;19459;53.044;8.910;2022-07-09T02:59:03;18.50;;;9.00;;
33094;SDS011;19459;53.044;8.910;2022-07-09T03:01:29;18.88;;;9.00;;
33094;SDS011;19459;53.044;8.910;2022-07-09T03:03:55;13.77;;;8.70;;
33094;SDS011;19459;53.044;8.910;2022-07-09T03:06:21;13.02;;;8.32;;
33094;SDS011;19459;53.044;8.910;2022-07-09T03:08:47;14.18;;;7.22;;
33094;SDS011;19459;53.044;8.910;2022-07-09T03:11:13;13.20;;;7.78;;
33094;SDS011;19459;53.044;8.910;2022-07-09T03:13:39;15.05;;;7.82;;
33094;SDS011;19459;53.044;8.910;2022-07-09T03:16:05;17.00;;;8.32;;
33094;SDS011;19459;53.044;8.910;2022-07-09T03:18:32;15.45;;;9.60;;
33094;SDS011;19459;53.044;8.910;2022-07-09T03:20:58;17.15;;;8.55;;
33094;SDS011;19459;53.044;8.910;2022-07-09T03:23:24;18.02;;;8.43;;
33094;SDS011;19459;53.044;8.910;2022-07-09T03:25:50;15.15;;;8.73;;
33094;SDS011;19459;53.044;8.910;2022-07-09T03:28:16;15.52;;;8.90;;
33094;SDS011;19459;53.044;8.910;2022-07-09T03:30:42;11.60;;;7.80;;
33094;SDS011;19459;53.044;8.910;2022-07-09T03:33:08;18.20;;;8.85;;
33094;SDS011;19459;53.044;8.910;2022-07-09T03:35:35;19.85;;;9.00;;
33094;SDS011;19459;53.044;8.910;2022-07-09T03:38:00;14.82;;;8.40;;
33094;SDS011;19459;53.044;8.910;2022-07-09T03:40:26;20.17;;;8.95;;
33094;SDS011;19459;53.044;8.910;2022-07-09T03:42:52;18.13;;;9.15;;
33094;SDS011;19459;53.044;8.910;2022-07-09T03:45:18;19.85;;;9.93;;
33094;SDS011;19459;53.044;8.910;2022-07-09T03:47:44;16.65;;;9.25;;
33094;SDS011;19459;53.044;8.910;2022-07-09T03:50:10;19.67;;;9.40;;
33094;SDS011;19459;53.044;8.910;2022-07-09T03:52:37;16.23;;;8.23;;
33094;SDS011;19459;53.044;8.910;2022-07-09T03:55:03;16.88;;;9.98;;
33094;SDS011;19459;53.044;8.910;2022-07-09T03:57:30;20.02;;;8.07;;
33094;SDS011;19459;53.044;8.910;2022-07-09T03:59:56;17.13;;;10.40;;
33094;SDS011;19459;53.044;8.910;2022-07-09T04:02:22;18.40;;;8.25;;
33094;SDS011;19459;53.044;8.910;2022-07-09T04:04:48;14.50;;;9.13;;
33094;SDS011;19459;53.044;8.910;2022-07-09T04:07:14;14.82;;;10.05;;
33094;SDS011;19459;53.044;8.910;2022-07-09T04:09:39;16.85;;;9.38;;
33094;SDS011;19459;53.044;8.910;2022-07-09T04:12:06;22.95;;;10.93;;
33094;SDS011;19459;53.044;8.910;2022-07-09T04:14:32;21.55;;;10.68;;
33094;SDS011;19459;53.044;8.910;2022-07-09T04:16:58;22.17;;;12.13;;
33094;SDS011;19459;53.044;8.910;2022-07-09T04:19:24;21.88;;;10.80;;
33094;SDS011;19459;53.044;8.910;2022-07-09T04:21:49;26.58;;;10.95;;
33094;SDS011;19459;53.044;8.910;2022-07-09T04:24:15;27.75;;;11.70;;
33094;SDS011;19459;53.044;8.910;2022-07-09T04:26:42;18.05;;;10.13;;
33094;SDS011;19459;53.044;8.910;2022-07-09T04:29:08;25.48;;;12.20;;
33094;SDS011;19459;53.044;8.910;2022-07-09T04:31:35;27.63;;;11.90;;
33094;SDS011;19459;53.044;8.910;2022-07-09T04:34:01;25.05;;;11.98;;
33094;SDS011;19459;53.044;8.910;2022-07-09T04:36:26;24.30;;;13.15;;
33094;SDS011;19459;53.044;8.910;2022-07-09T04:38:53;19.15;;;12.10;;
33094;SDS011;19459;53.044;8.910;2022-07-09T04:41:20;21.55;;;12.93;;
33094;SDS011;19459;53.044;8.910;2022-07-09T04:43:46;20.80;;;11.65;;
33094;SDS011;19459;53.044;8.910;2022-07-09T04:46:11;20.60;;;12.15;;
33094;SDS011;19459;53.044;8.910;2022-07-09T04:48:39;26.73;;;13.98;;
33094;SDS011;19459;53.044;8.910;2022-07-09T04:51:04;20.80;;;12.05;;
33094;SDS011;19459;53.044;8.910;2022-07-09T04:53:30;24.95;;;13.73;;
33094;SDS011;19459;53.044;8.910;2022-07-09T04:55:56;28.48;;;14.38;;
33094;SDS011;19459;53.044;8.910;2022-07-09T04:58:22;22.20;;;13.18;;
33094;SDS011;19459;53.044;8.910;2022-07-09T05:00:47;22.70;;;11.75;;
33094;SDS011;19459;53.044;8.910;2022-07-09T05:03:13;20.38;;;11.88;;
33094;SDS011;19459;53.044;8.910;2022-07-09T05:05:39;25.17;;;13.43;;
33094;SDS011;19459;53.044;8.910;2022-07-09T05:08:05;24.77;;;13.70;;
33094;SDS011;19459;53.044;8.910;2022-07-09T05:10:31;27.85;;;12.63;;
33094;SDS011;19459;53.044;8.910;2022-07-09T05:12:56;26.55;;;13.20;;
33094;SDS011;19459;53.044;8.910;2022-07-09T05:15:22;25.15;;;12.48;;
33094;SDS011;19459;53.044;8.910;2022-07-09T05:17:48;29.35;;;13.30;;
33094;SDS011;19459;53.044;8.910;2022-07-09T05:20:14;25.90;;;13.95;;
33094;SDS011;19459;53.044;8.910;2022-07-09T05:22:39;22.70;;;12.75;;
33094;SDS011;19459;53.044;8.910;2022-07-09T05:25:05;22.73;;;12.70;;
33094;SDS011;19459;53.044;8.910;2022-07-09T05:27:32;25.55;;;12.73;;
33094;SDS011;19459;53.044;8.910;2022-07-09T05:30:05;25.25;;;13.15;;
33094;SDS011;19459;53.044;8.910;2022-07-09T05:32:32;21.45;;;13.35;;
33094;SDS011;19459;53.044;8.910;2022-07-09T05:34:57;21.70;;;12.15;;
33094;SDS011;19459;53.044;8.910;2022-07-09T05:37:23;19.45;;;11.55;;
33094;SDS011;19459;53.044;8.910;2022-07-09T05:39:49;19.55;;;13.30;;
33094;SDS011;19459;53.044;8.910;2022-07-09T05:42:15;23.80;;;12.85;;
33094;SDS011;19459;53.044;8.910;2022-07-09T05:44:40;26.95;;;12.98;;
33094;SDS011;19459;53.044;8.910;2022-07-09T05:47:06;22.48;;;13.57;;
33094;SDS011;19459;53.044;8.910;2022-07-09T05:49:32;25.27;;;13.48;;
33094;SDS011;19459;53.044;8.910;2022-07-09T05:51:57;21.95;;;13.38;;
33094;SDS011;19459;53.044;8.910;2022-07-09T05:54:23;26.52;;;12.85;;
33094;SDS011;19459;53.044;8.910;2022-07-09T05:56:49;25.75;;;14.48;;
33094;SDS011;19459;53.044;8.910;2022-07-09T05:59:16;19.80;;;12.80;;
33094;SDS011;19459;53.044;8.910;2022-07-09T06:01:41;26.63;;;12.85;;
33094;SDS011;19459;53.044;8.910;2022-07-09T06:04:07;21.63;;;12.15;;
33094;SDS011;19459;53.044;8.910;2022-07-09T06:06:34;18.02;;;12.25;;
33094;SDS011;19459;53.044;8.910;2022-07-09T06:09:00;18.40;;;11.80;;
33094;SDS011;19459;53.044;8.910;2022-07-09T06:11:26;22.00;;;13.88;;
33094;SDS011;19459;53.044;8.910;2022-07-09T06:13:52;22.65;;;13.40;;
33094;SDS011;19459;53.044;8.910;2022-07-09T06:16:18;15.75;;;11.45;;
33094;SDS011;19459;53.044;8.910;2022-07-09T06:18:43;22.35;;;11.52;;
33094;SDS011;19459;53.044;8.910;2022-07-09T06:21:09;20.27;;;11.15;;
33094;SDS011;19459;53.044;8.910;2022-07-09T06:23:35;17.60;;;11.18;;
33094;SDS011;19459;53.044;8.910;2022-07-09T06:26:01;18.70;;;11.02;;
33094;SDS011;19459;53.044;8.910;2022-07-09T06:28:27;20.85;;;11.90;;
33094;SDS011;19459;53.044;8.910;2022-07-09T06:30:53;17.42;;;10.70;;
33094;SDS011;19459;53.044;8.910;2022-07-09T06:33:18;21.17;;;10.45;;
33094;SDS011;19459;53.044;8.910;2022-07-09T06:35:44;19.77;;;10.27;;
33094;SDS011;19459;53.044;8.910;2022-07-09T06:38:10;29.17;;;12.02;;
33094;SDS011;19459;53.044;8.910;2022-07-09T06:40:35;15.88;;;9.50;;
33094;SDS011;19459;53.044;8.910;2022-07-09T06:43:01;21.27;;;9.57;;
33094;SDS011;19459;53.044;8.910;2022-07-09T06:45:28;18.42;;;9.30;;
33094;SDS011;19459;53.044;8.910;2022-07-09T06:47:54;13.82;;;8.07;;
33094;SDS011;19459;53.044;8.910;2022-07-09T06:50:20;16.92;;;8.13;;
33094;SDS011;19459;53.044;8.910;2022-07-09T06:52:46;16.00;;;7.40;;
33094;SDS011;19459;53.044;8.910;2022-07-09T06:55:12;11.48;;;7.05;;
33094;SDS011;19459;53.044;8.910;2022-07-09T06:57:37;11.88;;;7.47;;
33094;SDS011;19459;53.044;8.910;2022-07-09T07:00:04;15.02;;;7.90;;
33094;SDS011;19459;53.044;8.910;2022-07-09T07:02:31;12.05;;;7.22;;
33094;SDS011;19459;53.044;8.910;2022-07-09T07:04:57;14.10;;;6.70;;
33094;SDS011;19459;53.044;8.910;2022-07-09T07:07:23;17.42;;;7.75;;
33094;SDS011;19459;53.044;8.910;2022-07-09T07:09:49;15.13;;;6.93;;
33094;SDS011;19459;53.044;8.910;2022-07-09T07:12:14;18.85;;;8.32;;
33094;SDS011;19459;53.044;8.910;2022-07-09T07:14:40;15.98;;;7.63;;
33094;SDS011;19459;53.044;8.910;2022-07-09T07:17:06;15.25;;;6.95;;
33094;SDS011;19459;53.044;8.910;2022-07-09T07:19:32;16.48;;;7.60;;
33094;SDS011;19459;53.044;8.910;2022-07-09T07:21:58;15.45;;;6.63;;
33094;SDS011;19459;53.044;8.910;2022-07-09T07:24:24;19.92;;;8.05;;
33094;SDS011;19459;53.044;8.910;2022-07-09T07:26:50;18.70;;;7.43;;
33094;SDS011;19459;53.044;8.910;2022-07-09T07:29:15;14.60;;;6.38;;
33094;SDS011;19459;53.044;8.910;2022-07-09T07:31:41;12.05;;;6.68;;
33094;SDS011;19459;53.044;8.910;2022-07-09T07:34:07;16.45;;;6.78;;
33094;SDS011;19459;53.044;8.910;2022-07-09T07:36:33;8.63;;;5.97;;
33094;SDS011;19459;53.044;8.910;2022-07-09T07:38:59;13.57;;;5.45;;
33094;SDS011;19459;53.044;8.910;2022-07-09T07:41:25;11.98;;;5.90;;
33094;SDS011;19459;53.044;8.910;2022-07-09T07:43:51;12.05;;;5.80;;
33094;SDS011;19459;53.044;8.910;2022-07-09T07:46:16;12.50;;;5.65;;
33094;SDS011;19459;53.044;8.910;2022-07-09T07:48:42;14.07;;;5.00;;
33094;SDS011;19459;53.044;8.910;2022-07-09T07:51:08;11.82;;;5.10;;
33094;SDS011;19459;53.044;8.910;2022-07-09T07:53:34;11.55;;;5.65;;
33094;SDS011;19459;53.044;8.910;2022-07-09T07:56:04;9.68;;;4.93;;
33094;SDS011;19459;53.044;8.910;2022-07-09T07:58:32;10.15;;;4.03;;
33094;SDS011;19459;53.044;8.910;2022-07-09T08:00:58;12.38;;;4.40;;
33094;SDS011;19459;53.044;8.910;2022-07-09T08:03:25;15.63;;;4.90;;
33094;SDS011;19459;53.044;8.910;2022-07-09T08:05:51;11.57;;;4.85;;
33094;SDS011;19459;53.044;8.910;2022-07-09T08:08:17;8.70;;;4.65;;
33094;SDS011;19459;53.044;8.910;2022-07-09T08:10:46;9.63;;;4.40;;
33094;SDS011;19459;53.044;8.910;2022-07-09T08:13:15;11.70;;;4.95;;
33094;SDS011;19459;53.044;8.910;2022-07-09T08:15:41;4.47;;;3.42;;
33094;SDS011;19459;53.044;8.910;2022-07-09T08:18:09;9.65;;;4.68;;
33094;SDS011;19459;53.044;8.910;2022-07-09T08:20:38;10.15;;;4.70;;
33094;SDS011;19459;53.044;8.910;2022-07-09T08:23:05;10.57;;;4.22;;
33094;SDS011;19459;53.044;8.910;2022-07-09T08:25:32;13.73;;;4.28;;
33094;SDS011;19459;53.044;8.910;2022-07-09T08:27:58;7.07;;;4.32;;
33094;SDS011;19459;53.044;8.910;2022-07-09T08:30:23;5.90;;;3.30;;
33094;SDS011;19459;53.044;8.910;2022-07-09T08:32:49;6.80;;;3.70;;
33094;SDS011;19459;53.044;8.910;2022-07-09T08:35:15;5.28;;;3.72;;
33094;SDS011;19459;53.044;8.910;2022-07-09T08:37:41;8.85;;;3.20;;
33094;SDS011;19459;53.044;8.910;2022-07-09T08:40:06;9.95;;;3.47;;
33094;SDS011;19459;53.044;8.910;2022-07-09T08:42:33;6.53;;;4.00;;
33094;SDS011;19459;53.044;8.910;2022-07-09T08:44:59;6.68;;;3.10;;
33094;SDS011;19459;53.044;8.910;2022-07-09T08:47:26;7.90;;;2.97;;
33094;SDS011;19459;53.044;8.910;2022-07-09T08:49:54;5.50;;;3.00;;
33094;SDS011;19459;53.044;8.910;2022-07-09T08:52:23;7.97;;;3.00;;
33094;SDS011;19459;53.044;8.910;2022-07-09T08:54:52;7.03;;;2.80;;
33094;SDS011;19459;53.044;8.910;2022-07-09T08:57:19;5.70;;;1.95;;
33094;SDS011;19459;53.044;8.910;2022-07-09T08:59:44;4.13;;;2.03;;
33094;SDS011;19459;53.044;8.910;2022-07-09T09:02:10;6.93;;;2.42;;
33094;SDS011;19459;53.044;8.910;2022-07-09T09:04:38;4.93;;;2.17;;
33094;SDS011;19459;53.044;8.910;2022-07-09T09:07:15;4.88;;;3.00;;
33094;SDS011;19459;53.044;8.910;2022-07-09T09:09:41;10.57;;;2.83;;
33094;SDS011;19459;53.044;8.910;2022-07-09T09:12:07;6.82;;;2.88;;
33094;SDS011;19459;53.044;8.910;2022-07-09T09:14:34;5.85;;;2.25;;
33094;SDS011;19459;53.044;8.910;2022-07-09T09:17:06;3.33;;;2.08;;
33094;SDS011;19459;53.044;8.910;2022-07-09T09:19:37;4.97;;;1.90;;
33094;SDS011;19459;53.044;8.910;2022-07-09T09:22:04;7.65;;;2.22;;
33094;SDS011;19459;53.044;8.910;2022-07-09T09:24:31;7.18;;;2.63;;
33094;SDS011;19459;53.044;8.910;2022-07-09T09:27:00;9.07;;;1.70;;
33094;SDS011;19459;53.044;8.910;2022-07-09T09:29:27;4.80;;;1.77;;
33094;SDS011;19459;53.044;8.910;2022-07-09T09:31:53;2.60;;;1.23;;
33094;SDS011;19459;53.044;8.910;2022-07-09T09:34:20;4.30;;;1.80;;
33094;SDS011;19459;53.044;8.910;2022-07-09T09:36:48;4.68;;;1.67;;
33094;SDS011;19459;53.044;8.910;2022-07-09T09:41:50;5.80;;;1.75;;
33094;SDS011;19459;53.044;8.910;2022-07-09T09:44:19;7.90;;;1.70;;
33094;SDS011;19459;53.044;8.910;2022-07-09T09:47:05;3.80;;;1.75;;
33094;SDS011;19459;53.044;8.910;2022-07-09T09:49:32;3.20;;;1.30;;
33094;SDS011;19459;53.044;8.910;2022-07-09T09:52:00;4.03;;;1.20;;
33094;SDS011;19459;53.044;8.910;2022-07-09T09:54:33;3.63;;;1.10;;
33094;SDS011;19459;53.044;8.910;2022-07-09T09:57:05;4.00;;;1.25;;
33094;SDS011;19459;53.044;8.910;2022-07-09T09:59:37;2.78;;;1.10;;
33094;SDS011;19459;53.044;8.910;2022-07-09T10:02:07;3.60;;;1.20;;
33094;SDS011;19459;53.044;8.910;2022-07-09T10:04:41;1.75;;;1.20;;
33094;SDS011;19459;53.044;8.910;2022-07-09T10:09:41;2.50;;;1.20;;
33094;SDS011;19459;53.044;8.910;2022-07-09T10:14:54;2.95;;;1.23;;
33094;SDS011;19459;53.044;8.910;2022-07-09T10:17:22;4.68;;;1.35;;
33094;SDS011;19459;53.044;8.910;2022-07-09T10:19:50;2.10;;;1.40;;
33094;SDS011;19459;53.044;8.910;2022-07-09T10:22:36;4.50;;;1.38;;
33094;SDS011;19459;53.044;8.910;2022-07-09T10:25:05;2.72;;;1.20;;
33094;SDS011;19459;53.044;8.910;2022-07-09T10:27:42;4.22;;;1.30;;
33094;SDS011;19459;53.044;8.910;2022-07-09T10:30:25;1.38;;;0.82;;
33094;SDS011;19459;53.044;8.910;2022-07-09T10:33:10;4.97;;;1.40;;
33094;SDS011;19459;53.044;8.910;2022-07-09T10:38:16;7.00;;;1.98;;
33094;SDS011;19459;53.044;8.910;2022-07-09T10:40:47;5.90;;;2.05;;
33094;SDS011;19459;53.044;8.910;2022-07-09T10:43:38;8.82;;;2.60;;
33094;SDS011;19459;53.044;8.910;2022-07-09T10:46:10;8.15;;;3.22;;
33094;SDS011;19459;53.044;8.910;2022-07-09T10:48:37;11.07;;;3.70;;
33094;SDS011;19459;53.044;8.910;2022-07-09T10:51:03;8.45;;;2.92;;
33094;SDS011;19459;53.044;8.910;2022-07-09T10:53:29;8.80;;;3.05;;
33094;SDS011;19459;53.044;8.910;2022-07-09T10:55:55;8.85;;;3.25;;
33094;SDS011;19459;53.044;8.910;2022-07-09T10:58:23;7.75;;;3.80;;
33094;SDS011;19459;53.044;8.910;2022-07-09T11:00:57;15.38;;;3.25;;
33094;SDS011;19459;53.044;8.910;2022-07-09T11:03:26;9.30;;;3.92;;
33094;SDS011;19459;53.044;8.910;2022-07-09T11:05:53;5.20;;;3.33;;
33094;SDS011;19459;53.044;8.910;2022-07-09T11:08:20;10.80;;;3.90;;
33094;SDS011;19459;53.044;8.910;2022-07-09T11:10:46;9.35;;;3.90;;
33094;SDS011;19459;53.044;8.910;2022-07-09T11:13:13;17.25;;;4.53;;
33094;SDS011;19459;53.044;8.910;2022-07-09T11:15:39;13.52;;;2.88;;
33094;SDS011;19459;53.044;8.910;2022-07-09T11:18:06;13.70;;;3.92;;
33094;SDS011;19459;53.044;8.910;2022-07-09T11:20:41;9.02;;;3.10;;
33094;SDS011;19459;53.044;8.910;2022-07-09T11:23:12;8.13;;;2.92;;
33094;SDS011;19459;53.044;8.910;2022-07-09T11:25:40;4.95;;;2.05;;
33094;SDS011;19459;53.044;8.910;2022-07-09T11:28:07;6.90;;;2.70;;
33094;SDS011;19459;53.044;8.910;2022-07-09T11:30:33;8.40;;;2.60;;
33094;SDS011;19459;53.044;8.910;2022-07-09T11:32:59;7.50;;;2.30;;
33094;SDS011;19459;53.044;8.910;2022-07-09T11:35:32;7.03;;;2.05;;
33094;SDS011;19459;53.044;8.910;2022-07-09T11:38:02;10.15;;;2.75;;
33094;SDS011;19459;53.044;8.910;2022-07-09T11:40:33;3.95;;;1.85;;
33094;SDS011;19459;53.044;8.910;2022-07-09T11:42:59;7.18;;;2.03;;
33094;SDS011;19459;53.044;8.910;2022-07-09T11:45:28;5.40;;;2.78;;
33094;SDS011;19459;53.044;8.910;2022-07-09T11:48:04;3.35;;;1.48;;
33094;SDS011;19459;53.044;8.910;2022-07-09T11:50:32;6.68;;;2.30;;
33094;SDS011;19459;53.044;8.910;2022-07-09T11:53:00;8.85;;;2.13;;
33094;SDS011;19459;53.044;8.910;2022-07-09T11:55:30;4.97;;;2.50;;
33094;SDS011;19459;53.044;8.910;2022-07-09T11:58:06;7.03;;;2.17;;
33094;SDS011;19459;53.044;8.910;2022-07-09T12:00:36;3.20;;;1.90;;
33094;SDS011;19459;53.044;8.910;2022-07-09T12:03:05;5.57;;;2.38;;
33094;SDS011;19459;53.044;8.910;2022-07-09T12:05:35;6.75;;;2.15;;
33094;SDS011;19459;53.044;8.910;2022-07-09T12:08:03;8.05;;;2.38;;
33094;SDS011;19459;53.044;8.910;2022-07-09T12:10:31;5.45;;;2.17;;
33094;SDS011;19459;53.044;8.910;2022-07-09T12:12:59;4.75;;;1.80;;
33094;SDS011;19459;53.044;8.910;2022-07-09T12:15:26;4.93;;;1.70;;
33094;SDS011;19459;53.044;8.910;2022-07-09T12:17:53;5.32;;;1.77;;
33094;SDS011;19459;53.044;8.910;2022-07-09T12:20:26;7.65;;;2.28;;
33094;SDS011;19459;53.044;8.910;2022-07-09T12:22:53;11.60;;;2.92;;
33094;SDS011;19459;53.044;8.910;2022-07-09T12:25:20;5.18;;;1.70;;
33094;SDS011;19459;53.044;8.910;2022-07-09T12:27:46;3.50;;;1.60;;
33094;SDS011;19459;53.044;8.910;2022-07-09T12:30:14;8.68;;;2.35;;
33094;SDS011;19459;53.044;8.910;2022-07-09T12:32:40;5.60;;;1.90;;
33094;SDS011;19459;53.044;8.910;2022-07-09T12:35:07;4.40;;;1.60;;
33094;SDS011;19459;53.044;8.910;2022-07-09T12:37:34;4.55;;;2.35;;
33094;SDS011;19459;53.044;8.910;2022-07-09T12:40:04;4.63;;;2.00;;
33094;SDS011;19459;53.044;8.910;2022-07-09T12:42:32;7.10;;;2.35;;
33094;SDS011;19459;53.044;8.910;2022-07-09T12:44:58;5.07;;;1.60;;
33094;SDS011;19459;53.044;8.910;2022-07-09T12:47:25;6.97;;;1.65;;
33094;SDS011;19459;53.044;8.910;2022-07-09T12:49:50;5.47;;;2.25;;
33094;SDS011;19459;53.044;8.910;2022-07-09T12:52:16;10.80;;;3.30;;
33094;SDS011;19459;53.044;8.910;2022-07-09T12:54:42;5.38;;;1.75;;
33094;SDS011;19459;53.044;8.910;2022-07-09T12:57:09;5.75;;;1.73;;
33094;SDS011;19459;53.044;8.910;2022-07-09T12:59:35;7.35;;;1.67;;
33094;SDS011;19459;53.044;8.910;2022-07-09T13:02:02;6.10;;;1.83;;
33094;SDS011;19459;53.044;8.910;2022-07-09T13:04:28;6.65;;;1.98;;
33094;SDS011;19459;53.044;8.910;2022-07-09T13:06:54;6.72;;;1.92;;
33094;SDS011;19459;53.044;8.910;2022-07-09T13:09:20;9.90;;;1.98;;
33094;SDS011;19459;53.044;8.910;2022-07-09T13:11:46;8.02;;;1.83;;
33094;SDS011;19459;53.044;8.910;2022-07-09T13:14:13;8.15;;;1.55;;
33094;SDS011;19459;53.044;8.910;2022-07-09T13:16:39;5.90;;;2.00;;
33094;SDS011;19459;53.044;8.910;2022-07-09T13:19:05;3.65;;;2.03;;
33094;SDS011;19459;53.044;8.910;2022-07-09T13:21:31;8.07;;;1.80;;
33094;SDS011;19459;53.044;8.910;2022-07-09T13:23:57;6.30;;;1.90;;
33094;SDS011;19459;53.044;8.910;2022-07-09T13:26:24;9.57;;;2.55;;
33094;SDS011;19459;53.044;8.910;2022-07-09T13:28:50;10.32;;;3.08;;
33094;SDS011;19459;53.044;8.910;2022-07-09T13:31:16;6.63;;;1.90;;
33094;SDS011;19459;53.044;8.910;2022-07-09T13:33:41;6.95;;;1.92;;
33094;SDS011;19459;53.044;8.910;2022-07-09T13:36:07;6.93;;;2.13;;
33094;SDS011;19459;53.044;8.910;2022-07-09T13:38:33;9.45;;;1.98;;
33094;SDS011;19459;53.044;8.910;2022-07-09T13:41:00;10.40;;;1.80;;
33094;SDS011;19459;53.044;8.910;2022-07-09T13:43:26;7.60;;;1.92;;
33094;SDS011;19459;53.044;8.910;2022-07-09T13:45:54;6.90;;;1.70;;
33094;SDS011;19459;53.044;8.910;2022-07-09T13:48:21;12.55;;;2.45;;
33094;SDS011;19459;53.044;8.910;2022-07-09T13:50:48;6.97;;;1.50;;
33094;SDS011;19459;53.044;8.910;2022-07-09T13:53:14;8.73;;;1.75;;
33094;SDS011;19459;53.044;8.910;2022-07-09T13:55:40;4.70;;;1.45;;
33094;SDS011;19459;53.044;8.910;2022-07-09T13:58:06;3.88;;;1.30;;
33094;SDS011;19459;53.044;8.910;2022-07-09T14:00:32;6.50;;;1.50;;
33094;SDS011;19459;53.044;8.910;2022-07-09T14:02:58;3.67;;;1.20;;
33094;SDS011;19459;53.044;8.910;2022-07-09T14:05:24;3.33;;;1.40;;
33094;SDS011;19459;53.044;8.910;2022-07-09T14:07:50;7.20;;;1.65;;
33094;SDS011;19459;53.044;8.910;2022-07-09T14:10:16;6.05;;;1.38;;
33094;SDS011;19459;53.044;8.910;2022-07-09T14:12:42;7.97;;;1.52;;
33094;SDS011;19459;53.044;8.910;2022-07-09T14:15:08;7.53;;;1.65;;
33094;SDS011;19459;53.044;8.910;2022-07-09T14:17:34;8.07;;;2.08;;
33094;SDS011;19459;53.044;8.910;2022-07-09T14:20:00;4.30;;;1.50;;
33094;SDS011;19459;53.044;8.910;2022-07-09T14:22:26;3.65;;;1.27;;
33094;SDS011;19459;53.044;8.910;2022-07-09T14:24:52;11.65;;;1.95;;
33094;SDS011;19459;53.044;8.910;2022-07-09T14:27:18;8.07;;;1.75;;
33094;SDS011;19459;53.044;8.910;2022-07-09T14:29:44;3.40;;;1.30;;
33094;SDS011;19459;53.044;8.910;2022-07-09T14:32:10;4.63;;;1.50;;
33094;SDS011;19459;53.044;8.910;2022-07-09T14:34:37;8.95;;;1.80;;
33094;SDS011;19459;53.044;8.910;2022-07-09T14:37:03;5.63;;;1.13;;
33094;SDS011;19459;53.044;8.910;2022-07-09T14:39:29;8.20;;;1.45;;
33094;SDS011;19459;53.044;8.910;2022-07-09T14:41:55;2.92;;;1.15;;
33094;SDS011;19459;53.044;8.910;2022-07-09T14:44:22;8.25;;;1.60;;
33094;SDS011;19459;53.044;8.910;2022-07-09T14:46:48;12.90;;;1.80;;